createdAt,value
2018-06-18T03:01:05.548Z,97.47
2018-06-18T03:02:04.632Z,97.85
2018-06-18T03:03:04.046Z,97.85
2018-06-18T03:04:04.181Z,97.56
2018-06-18T03:05:04.356Z,97.94
2018-06-18T03:06:04.452Z,97.94
2018-06-18T03:07:04.698Z,98.61
2018-06-18T03:08:04.833Z,98.52
2018-06-18T03:09:05.058Z,98.61
2018-06-18T03:10:05.144Z,98.61
2018-06-18T03:11:05.391Z,98.61
2018-06-18T03:12:05.450Z,98.33
2018-06-18T03:13:05.627Z,98.71
2018-06-18T03:14:05.844Z,98.52
2018-06-18T03:15:06.043Z,98.61
2018-06-18T03:16:06.173Z,98.99
2018-06-18T03:17:06.305Z,99.19
2018-06-18T03:18:06.560Z,99.19
2018-06-18T03:19:06.677Z,99.19
2018-06-18T03:20:06.839Z,98.90
2018-06-18T03:21:07.019Z,99.38
2018-06-18T03:22:07.179Z,98.90
2018-06-18T03:23:07.381Z,99.28
2018-06-18T03:24:07.476Z,99.09
2018-06-18T03:25:07.694Z,98.99
2018-06-18T03:26:07.844Z,99.09
2018-06-18T03:27:07.982Z,98.52
2018-06-18T03:28:08.186Z,98.52
2018-06-18T03:29:08.361Z,98.80
2018-06-18T03:30:08.495Z,97.90
2018-06-18T03:31:08.709Z,97.75
2018-06-18T03:32:08.881Z,97.85
2018-06-18T03:33:09.014Z,97.71
2018-06-18T03:34:09.186Z,97.61
2018-06-18T03:35:09.400Z,97.52
2018-06-18T03:36:09.566Z,97.33
2018-06-18T03:37:09.682Z,97.85
2018-06-18T03:38:09.865Z,97.85
2018-06-18T03:39:10.093Z,98.42
2018-06-18T03:40:10.195Z,97.75
2018-06-18T03:41:10.344Z,97.94
2018-06-18T03:42:10.505Z,98.13
2018-06-18T03:43:10.728Z,97.47
2018-06-18T03:44:10.795Z,97.90
2018-06-18T03:45:11.025Z,98.23
2018-06-18T03:46:11.140Z,97.47
2018-06-18T03:47:11.359Z,97.75
2018-06-18T03:48:11.498Z,97.85
2018-06-18T03:49:11.725Z,97.94
2018-06-18T03:50:11.816Z,97.08
2018-06-18T03:51:12.031Z,98.61
2018-06-18T03:52:12.181Z,97.94
2018-06-18T03:53:12.366Z,97.75
2018-06-18T03:54:12.458Z,97.61
2018-06-18T03:55:12.687Z,97.52
2018-06-18T03:56:12.819Z,97.71
2018-06-18T03:57:12.951Z,98.47
2018-06-18T03:58:13.212Z,98.47
2018-06-18T03:59:13.325Z,98.09
2018-06-18T04:00:13.479Z,98.18
2018-06-18T04:01:13.628Z,98.75
2018-06-18T04:02:13.893Z,98.47
2018-06-18T04:03:14.090Z,98.66
2018-06-18T04:04:14.251Z,98.38
2018-06-18T04:05:14.334Z,98.09
2018-06-18T04:06:14.577Z,98.28
2018-06-18T04:07:14.708Z,97.71
2018-06-18T04:08:14.979Z,97.42
2018-06-18T04:09:14.980Z,98.09
2018-06-18T04:10:15.158Z,97.71
2018-06-18T04:11:15.457Z,97.23
2018-06-18T04:12:15.518Z,97.23
2018-06-18T04:13:15.690Z,96.94
2018-06-18T04:14:15.890Z,97.33
2018-06-18T04:15:16.055Z,96.66
2018-06-18T04:16:16.155Z,96.75
2018-06-18T04:17:16.328Z,96.94
2018-06-18T04:18:16.612Z,96.47
2018-06-18T04:19:16.783Z,97.56
2018-06-18T04:20:16.969Z,97.04
2018-06-18T04:21:17.060Z,97.04
2018-06-18T04:22:17.229Z,96.94
2018-06-18T04:23:17.445Z,96.80
2018-06-18T04:24:17.572Z,96.32
2018-06-18T04:25:17.722Z,95.75
2018-06-18T04:26:17.873Z,95.75
2018-06-18T04:27:18.125Z,95.75
2018-06-18T04:28:18.214Z,95.56
2018-06-18T04:29:18.365Z,96.80
2018-06-18T04:30:18.585Z,96.80
2018-06-18T04:31:18.744Z,96.89
2018-06-18T04:32:18.854Z,96.80
2018-06-18T04:33:19.157Z,96.99
2018-06-18T04:34:19.334Z,97.18
2018-06-18T04:35:19.478Z,96.99
2018-06-18T04:36:19.522Z,97.08
2018-06-18T04:37:19.833Z,97.37
2018-06-18T04:38:19.902Z,96.42
2018-06-18T04:39:20.123Z,96.22
2018-06-18T04:40:20.277Z,96.22
2018-06-18T04:41:20.475Z,96.61
2018-06-18T04:42:20.613Z,97.18
2018-06-18T04:43:20.743Z,97.18
2018-06-18T04:44:20.967Z,96.89
2018-06-18T04:45:21.164Z,96.89
2018-06-18T04:46:21.234Z,96.22
2018-06-18T04:47:21.423Z,96.99
2018-06-18T04:48:21.628Z,95.56
2018-06-18T04:49:21.760Z,94.98
2018-06-18T04:50:22.013Z,95.75
2018-06-18T04:51:22.141Z,95.61
2018-06-18T04:52:22.262Z,95.51
2018-06-18T04:53:22.512Z,95.89
2018-06-18T04:54:22.607Z,95.89
2018-06-18T04:55:22.805Z,94.65
2018-06-18T04:56:23.106Z,94.93
2018-06-18T04:57:23.219Z,93.98
2018-06-18T04:58:23.367Z,93.50
2018-06-18T04:59:23.628Z,93.79
2018-06-18T05:00:23.773Z,94.07
2018-06-18T05:01:23.948Z,94.79
2018-06-18T05:02:24.086Z,94.02
2018-06-18T05:03:24.215Z,93.45
2018-06-18T05:04:24.415Z,93.26
2018-06-18T05:05:24.618Z,93.26
2018-06-18T05:06:24.722Z,92.87
2018-06-18T05:07:24.908Z,92.68
2018-06-18T05:08:25.050Z,92.87
2018-06-18T05:09:25.247Z,92.68
2018-06-18T05:10:25.535Z,92.78
2018-06-18T05:11:25.591Z,92.87
2018-06-18T05:12:25.758Z,92.87
2018-06-18T05:13:25.892Z,92.21
2018-06-18T05:14:26.040Z,92.21
2018-06-18T05:15:26.265Z,91.63
2018-06-18T05:16:26.421Z,91.44
2018-06-18T05:17:26.607Z,91.49
2018-06-18T05:18:26.812Z,91.58
2018-06-18T05:19:27.036Z,91.67
2018-06-18T05:20:27.218Z,91.67
2018-06-18T05:21:27.379Z,91.19
2018-06-18T05:22:27.503Z,91.10
2018-06-18T05:23:27.702Z,91.24
2018-06-18T05:24:27.932Z,90.81
2018-06-18T05:25:28.090Z,91.34
2018-06-18T05:26:28.286Z,89.90
2018-06-18T05:27:28.416Z,89.23
2018-06-18T05:28:28.565Z,87.41
2018-06-18T05:29:28.935Z,86.83
2018-06-18T05:30:28.896Z,86.64
2018-06-18T05:31:29.097Z,86.45
2018-06-18T05:32:29.388Z,85.49
2018-06-18T05:33:29.515Z,84.63
2018-06-18T05:34:29.661Z,84.48
2018-06-18T05:35:29.857Z,85.05
2018-06-18T05:36:30.159Z,85.34
2018-06-18T05:37:30.104Z,85.53
2018-06-18T05:38:30.379Z,85.15
2018-06-18T05:39:30.364Z,85.63
2018-06-18T05:40:30.636Z,85.92
2018-06-18T05:41:30.803Z,86.11
2018-06-18T05:42:30.860Z,82.65
2018-06-18T05:43:31.236Z,79.97
2018-06-18T05:44:31.319Z,80.26
2018-06-18T05:45:31.464Z,81.22
2018-06-18T05:46:31.692Z,81.22
2018-06-18T05:47:31.854Z,80.11
2018-06-18T05:48:31.956Z,80.64
2018-06-18T05:49:32.082Z,79.97
2018-06-18T05:50:32.408Z,79.49
2018-06-18T05:51:32.677Z,79.53
2018-06-18T05:52:32.824Z,79.82
2018-06-18T05:53:32.971Z,80.30
2018-06-18T05:54:33.151Z,80.40
2018-06-18T05:55:33.303Z,80.97
2018-06-18T05:56:33.477Z,80.97
2018-06-18T05:57:33.566Z,80.68
2018-06-18T05:58:33.897Z,77.90
2018-06-18T05:59:34.042Z,76.94
2018-06-18T06:00:35.304Z,77.13
2018-06-18T06:01:34.610Z,77.51
2018-06-18T06:02:34.533Z,78.09
2018-06-18T06:03:34.741Z,77.65
2018-06-18T06:04:34.931Z,76.88
2018-06-18T06:05:35.045Z,76.31
2018-06-18T06:06:35.284Z,76.40
2018-06-18T06:07:35.521Z,77.50
2018-06-18T06:08:37.296Z,75.67
2018-06-18T06:09:48.711Z,73.94
2018-06-18T06:10:38.826Z,72.89
2018-06-18T06:11:39.154Z,75.00
2018-06-18T06:12:36.621Z,75.00
2018-06-18T06:13:36.480Z,72.22
2018-06-18T06:14:36.633Z,72.69
2018-06-18T06:15:36.829Z,72.73
2018-06-18T06:16:37.016Z,71.64
2018-06-18T06:17:37.187Z,71.87
2018-06-18T06:18:37.296Z,71.96
2018-06-18T06:19:37.504Z,71.10
2018-06-18T06:20:37.680Z,72.77
2018-06-18T06:21:37.788Z,74.21
2018-06-18T06:22:37.948Z,72.64
2018-06-18T06:23:38.162Z,72.06
2018-06-18T06:24:38.439Z,72.16
2018-06-18T06:25:38.587Z,75.32
2018-06-18T06:26:38.720Z,72.73
2018-06-18T06:27:38.910Z,71.87
2018-06-18T06:28:39.107Z,73.31
2018-06-18T06:29:39.377Z,72.12
2018-06-18T06:30:39.465Z,73.94
2018-06-18T06:31:39.617Z,75.04
2018-06-18T06:32:39.757Z,72.34
2018-06-18T06:33:40.107Z,74.65
2018-06-18T06:34:40.140Z,75.81
2018-06-18T06:35:40.337Z,76.48
2018-06-18T06:36:40.541Z,76.04
2018-06-18T06:37:40.708Z,75.46
2018-06-18T06:38:40.875Z,73.73
2018-06-18T06:39:41.098Z,74.21
2018-06-18T06:40:41.181Z,73.73
2018-06-18T06:41:41.399Z,73.25
2018-06-18T06:42:41.601Z,72.77
2018-06-18T06:43:42.464Z,70.07
2018-06-18T06:44:41.949Z,70.84
2018-06-18T06:45:42.032Z,71.14
2018-06-18T06:46:42.211Z,71.71
2018-06-18T06:47:42.414Z,69.98
2018-06-18T06:48:42.567Z,69.89
2018-06-18T06:49:42.671Z,69.50
2018-06-18T06:50:42.943Z,69.53
2018-06-18T06:51:43.138Z,71.81
2018-06-18T06:52:43.219Z,72.38
2018-06-18T06:53:43.439Z,70.68
2018-06-18T06:54:43.642Z,69.69
2018-06-18T06:55:43.840Z,69.82
2018-06-18T06:56:44.067Z,69.15
2018-06-18T06:57:44.210Z,70.17
2018-06-18T06:58:44.996Z,71.75
2018-06-18T06:59:44.544Z,71.42
2018-06-18T07:00:44.630Z,71.23
2018-06-18T07:01:44.927Z,72.00
2018-06-18T07:02:45.162Z,71.23
2018-06-18T07:03:45.235Z,72.29
2018-06-18T07:04:45.469Z,71.61
2018-06-18T07:05:45.673Z,71.61
2018-06-18T07:06:45.859Z,71.71
2018-06-18T07:07:45.982Z,71.91
2018-06-18T07:08:46.128Z,71.33
2018-06-18T07:09:46.348Z,71.71
2018-06-18T07:10:46.536Z,72.09
2018-06-18T07:11:46.717Z,69.75
2018-06-18T07:12:46.855Z,71.19
2018-06-18T07:13:47.043Z,71.00
2018-06-18T07:14:47.167Z,73.11
2018-06-18T07:15:47.343Z,72.64
2018-06-18T07:16:47.469Z,73.02
2018-06-18T07:17:47.602Z,72.92
2018-06-18T07:18:47.876Z,72.73
2018-06-18T07:19:47.981Z,72.06
2018-06-18T07:20:48.136Z,71.48
2018-06-18T07:21:48.347Z,72.92
2018-06-18T07:22:48.611Z,73.69
2018-06-18T07:23:48.724Z,71.87
2018-06-18T07:24:48.879Z,71.87
2018-06-18T07:25:49.054Z,71.67
2018-06-18T07:26:49.209Z,72.48
2018-06-18T07:27:49.402Z,70.90
2018-06-18T07:28:49.609Z,71.96
2018-06-18T07:29:49.716Z,72.06
2018-06-18T07:30:50.045Z,70.62
2018-06-18T07:31:50.050Z,71.67
2018-06-18T07:32:50.187Z,71.23
2018-06-18T07:33:50.481Z,72.38
2018-06-18T07:34:50.607Z,73.92
2018-06-18T07:35:50.703Z,72.77
2018-06-18T07:36:51.278Z,73.06
2018-06-18T07:37:51.113Z,74.30
2018-06-18T07:38:51.231Z,74.98
2018-06-18T07:39:51.379Z,74.02
2018-06-18T07:40:51.564Z,74.30
2018-06-18T07:41:51.710Z,73.25
2018-06-18T07:42:51.871Z,72.67
2018-06-18T07:43:52.106Z,72.48
2018-06-18T07:44:52.296Z,72.38
2018-06-18T07:45:52.360Z,71.33
2018-06-18T07:46:52.623Z,69.89
2018-06-18T07:47:52.752Z,68.06
2018-06-18T07:48:52.963Z,68.15
2018-06-18T07:49:53.130Z,69.53
2018-06-18T07:50:53.258Z,69.06
2018-06-18T07:51:53.467Z,68.96
2018-06-18T07:52:53.632Z,69.73
2018-06-18T07:53:53.779Z,69.92
2018-06-18T07:54:54.118Z,70.01
2018-06-18T07:55:54.177Z,69.82
2018-06-18T07:56:54.292Z,70.50
2018-06-18T07:57:54.508Z,70.88
2018-06-18T07:58:54.695Z,69.82
2018-06-18T07:59:54.796Z,69.50
2018-06-18T08:00:55.017Z,69.92
2018-06-18T08:01:55.200Z,70.78
2018-06-18T08:02:55.308Z,68.06
2018-06-18T08:03:55.569Z,69.50
2018-06-18T08:04:55.724Z,71.17
2018-06-18T08:05:55.854Z,71.04
2018-06-18T08:06:56.021Z,70.94
2018-06-18T08:07:56.194Z,69.53
2018-06-18T08:08:56.388Z,70.30
2018-06-18T08:09:56.540Z,71.04
2018-06-18T08:10:56.827Z,69.82
2018-06-18T08:11:56.876Z,70.59
2018-06-18T08:12:57.091Z,70.75
2018-06-18T08:13:57.203Z,69.50
2018-06-18T08:14:57.403Z,71.52
2018-06-18T08:15:57.700Z,72.09
2018-06-18T08:16:57.964Z,72.19
2018-06-18T08:17:58.018Z,72.29
2018-06-18T08:18:58.213Z,72.19
2018-06-18T08:19:58.333Z,72.13
2018-06-18T08:20:58.542Z,70.88
2018-06-18T08:21:58.711Z,71.65
2018-06-18T08:22:58.905Z,70.88
2018-06-18T08:23:59.056Z,69.67
2018-06-18T08:24:59.244Z,69.38
2018-06-18T08:25:59.424Z,70.05
2018-06-18T08:26:59.607Z,69.18
2018-06-18T08:27:59.731Z,68.99
2018-06-18T08:28:59.865Z,69.28
2018-06-18T08:30:00.070Z,69.47
2018-06-18T08:31:00.286Z,69.67
2018-06-18T08:32:00.447Z,68.32
2018-06-18T08:33:00.593Z,67.83
2018-06-18T08:34:00.794Z,67.55
2018-06-18T08:35:00.998Z,68.22
2018-06-18T08:36:01.193Z,68.90
2018-06-18T08:37:01.322Z,68.41
2018-06-18T08:38:01.441Z,69.95
2018-06-18T08:39:01.642Z,69.76
2018-06-18T08:40:01.802Z,67.74
2018-06-18T08:41:01.984Z,66.68
2018-06-18T08:42:02.189Z,66.97
2018-06-18T08:43:02.305Z,66.58
2018-06-18T08:44:02.527Z,67.07
2018-06-18T08:45:02.679Z,68.32
2018-06-18T08:46:02.861Z,69.09
2018-06-18T08:47:03.017Z,68.32
2018-06-18T08:48:03.159Z,66.68
2018-06-18T08:49:03.350Z,65.37
2018-06-18T08:50:03.539Z,66.71
2018-06-18T08:51:03.629Z,67.10
2018-06-18T08:52:03.899Z,67.10
2018-06-18T08:53:04.069Z,67.49
2018-06-18T08:54:04.199Z,67.00
2018-06-18T08:55:04.423Z,67.29
2018-06-18T08:56:04.553Z,67.10
2018-06-18T08:57:04.763Z,65.27
2018-06-18T08:58:04.951Z,65.75
2018-06-18T08:59:05.099Z,66.42
2018-06-18T09:00:05.292Z,65.46
2018-06-18T09:01:05.471Z,64.89
2018-06-18T09:02:05.628Z,65.08
2018-06-18T09:03:05.892Z,65.40
2018-06-18T09:04:05.932Z,66.75
2018-06-18T09:05:06.177Z,65.40
2018-06-18T09:06:06.391Z,64.86
2018-06-18T09:07:06.473Z,64.56
2018-06-18T09:08:06.734Z,65.05
2018-06-18T09:09:06.839Z,63.89
2018-06-18T09:10:07.010Z,63.21
2018-06-18T09:11:07.177Z,63.41
2018-06-18T09:12:07.339Z,63.24
2018-06-18T09:13:07.415Z,62.18
2018-06-18T09:14:07.627Z,62.18
2018-06-18T09:15:07.837Z,62.25
2018-06-18T09:16:07.946Z,63.41
2018-06-18T09:17:08.079Z,63.12
2018-06-18T09:18:08.267Z,63.21
2018-06-18T09:19:08.467Z,62.54
2018-06-18T09:20:08.673Z,63.50
2018-06-18T09:21:08.776Z,63.54
2018-06-18T09:22:09.013Z,64.11
2018-06-18T09:23:09.234Z,62.96
2018-06-18T09:24:09.340Z,62.76
2018-06-18T09:25:09.510Z,61.90
2018-06-18T09:26:09.645Z,62.18
2018-06-18T09:27:09.817Z,61.99
2018-06-18T09:28:10.026Z,60.64
2018-06-18T09:29:10.151Z,62.06
2018-06-18T09:30:10.372Z,63.98
2018-06-18T09:31:10.598Z,62.35
2018-06-18T09:32:10.766Z,62.73
2018-06-18T09:33:10.853Z,62.66
2018-06-18T09:34:11.063Z,60.74
2018-06-18T09:35:11.239Z,61.41
2018-06-18T09:36:11.351Z,60.77
2018-06-18T09:37:11.555Z,60.99
2018-06-18T09:38:11.773Z,60.71
2018-06-18T09:39:11.869Z,58.48
2018-06-18T09:40:12.015Z,59.58
2018-06-18T09:41:12.249Z,60.38
2018-06-18T09:42:12.436Z,58.93
2018-06-18T09:43:12.617Z,57.03
2018-06-18T09:44:12.746Z,56.35
2018-06-18T09:45:12.905Z,59.15
2018-06-18T09:46:13.081Z,54.22
2018-06-18T09:47:13.298Z,57.31
2018-06-18T09:48:13.439Z,57.21
2018-06-18T09:49:13.637Z,56.51
2018-06-18T09:50:13.765Z,57.60
2018-06-18T09:51:13.921Z,58.37
2018-06-18T09:52:14.090Z,57.89
2018-06-18T09:53:14.261Z,54.22
2018-06-18T09:54:14.441Z,54.61
2018-06-18T09:55:14.662Z,55.09
2018-06-18T09:56:14.850Z,56.35
2018-06-18T09:57:15.006Z,56.37
2018-06-18T09:58:15.209Z,57.86
2018-06-18T09:59:15.351Z,56.30
2018-06-18T10:00:15.522Z,55.51
2018-06-18T10:01:15.714Z,54.53
2018-06-18T10:02:15.938Z,55.21
2018-06-18T10:03:16.030Z,54.13
2018-06-18T10:04:16.241Z,55.47
2018-06-18T10:05:16.365Z,56.54
2018-06-18T10:06:16.569Z,55.16
2018-06-18T10:07:16.724Z,55.35
2018-06-18T10:08:16.895Z,55.35
2018-06-18T10:09:17.055Z,56.54
2018-06-18T10:10:17.204Z,56.73
2018-06-18T10:11:17.394Z,59.34
2018-06-18T10:12:17.611Z,57.99
2018-06-18T10:13:17.724Z,57.79
2018-06-18T10:14:17.865Z,57.03
2018-06-18T10:15:18.068Z,56.28
2018-06-18T10:16:18.279Z,56.57
2018-06-18T10:17:18.428Z,55.19
2018-06-18T10:18:18.635Z,56.67
2018-06-18T10:19:18.726Z,56.37
2018-06-18T10:20:18.989Z,58.12
2018-06-18T10:21:19.133Z,56.28
2018-06-18T10:22:19.267Z,56.25
2018-06-18T10:23:19.451Z,56.61
2018-06-18T10:24:19.660Z,55.45
2018-06-18T10:25:19.810Z,56.58
2018-06-18T10:26:19.991Z,60.16
2018-06-18T10:27:20.111Z,58.61
2018-06-18T10:28:20.377Z,58.80
2018-06-18T10:29:20.453Z,56.68
2018-06-18T10:30:20.593Z,58.12
2018-06-18T10:31:20.832Z,60.44
2018-06-18T10:32:21.017Z,60.03
2018-06-18T10:33:21.128Z,58.87
2018-06-18T10:34:21.336Z,58.29
2018-06-18T10:35:21.472Z,59.55
2018-06-18T10:36:21.665Z,59.74
2018-06-18T10:37:21.841Z,58.39
2018-06-18T10:38:22.020Z,58.77
2018-06-18T10:39:22.191Z,59.28
2018-06-18T10:40:22.382Z,59.45
2018-06-18T10:41:22.522Z,59.06
2018-06-18T10:42:22.706Z,58.77
2018-06-18T10:43:22.882Z,60.22
2018-06-18T10:44:23.122Z,58.39
2018-06-18T10:45:23.265Z,58.39
2018-06-18T10:46:23.389Z,60.13
2018-06-18T10:47:23.544Z,59.77
2018-06-18T10:48:23.763Z,58.87
2018-06-18T10:49:23.898Z,60.31
2018-06-18T10:50:24.048Z,61.09
2018-06-18T10:51:24.235Z,60.41
2018-06-18T10:52:24.457Z,58.39
2018-06-18T10:53:24.661Z,58.39
2018-06-18T10:54:24.854Z,61.25
2018-06-18T10:55:25.000Z,61.09
2018-06-18T10:56:25.163Z,61.09
2018-06-18T10:57:25.321Z,60.31
2018-06-18T10:58:25.542Z,60.80
2018-06-18T10:59:25.645Z,58.29
2018-06-18T11:00:25.854Z,59.25
2018-06-18T11:01:26.039Z,58.12
2018-06-18T11:02:26.166Z,58.32
2018-06-18T11:03:26.376Z,58.12
2018-06-18T11:04:26.595Z,57.84
2018-06-18T11:05:26.833Z,59.41
2018-06-18T11:06:26.969Z,58.45
2018-06-18T11:07:27.110Z,58.15
2018-06-18T11:08:27.237Z,58.35
2018-06-18T11:09:27.393Z,56.90
2018-06-18T11:10:27.631Z,56.13
2018-06-18T11:11:27.741Z,58.15
2018-06-18T11:12:28.019Z,57.96
2018-06-18T11:13:28.073Z,58.25
2018-06-18T11:14:28.297Z,58.42
2018-06-18T11:15:28.461Z,59.09
2018-06-18T11:16:28.739Z,58.80
2018-06-18T11:17:29.012Z,58.12
2018-06-18T11:18:29.055Z,57.45
2018-06-18T11:19:29.184Z,58.51
2018-06-18T11:20:29.330Z,58.61
2018-06-18T11:21:29.518Z,58.15
2018-06-18T11:22:29.771Z,57.67
2018-06-18T11:23:29.934Z,56.15
2018-06-18T11:24:30.109Z,56.45
2018-06-18T11:25:30.274Z,54.73
2018-06-18T11:26:30.460Z,55.31
2018-06-18T11:27:30.637Z,54.15
2018-06-18T11:28:30.786Z,55.41
2018-06-18T11:29:30.948Z,56.50
2018-06-18T11:30:31.177Z,55.11
2018-06-18T11:31:31.346Z,54.63
2018-06-18T11:32:31.483Z,56.18
2018-06-18T11:33:31.710Z,54.22
2018-06-18T11:34:31.857Z,55.29
2018-06-18T11:35:32.037Z,56.35
2018-06-18T11:36:32.200Z,57.67
2018-06-18T11:37:32.395Z,58.25
2018-06-18T11:38:32.502Z,58.45
2018-06-18T11:39:32.721Z,58.15
2018-06-18T11:40:32.849Z,57.16
2018-06-18T11:41:33.020Z,58.03
2018-06-18T11:42:33.184Z,57.06
2018-06-18T11:43:33.377Z,58.80
2018-06-18T11:44:33.543Z,59.86
2018-06-18T11:45:33.725Z,61.22
2018-06-18T11:46:33.882Z,59.48
2018-06-18T11:47:34.099Z,60.64
2018-06-18T11:48:34.230Z,61.47
2018-06-18T11:49:34.411Z,58.32
2018-06-18T11:50:34.642Z,59.96
2018-06-18T11:51:34.761Z,60.35
2018-06-18T11:52:34.954Z,60.18
2018-06-18T11:53:35.136Z,58.64
2018-06-18T11:54:35.236Z,58.73
2018-06-18T11:55:35.441Z,57.74
2018-06-18T11:56:35.584Z,57.93
2018-06-18T11:57:35.878Z,58.64
2018-06-18T11:58:35.968Z,58.93
2018-06-18T11:59:36.154Z,59.34
2018-06-18T12:00:36.266Z,56.71
2018-06-18T12:01:36.456Z,56.83
2018-06-18T12:02:36.714Z,56.15
2018-06-18T12:03:36.850Z,56.25
2018-06-18T12:04:36.969Z,56.93
2018-06-18T12:05:37.201Z,57.44
2018-06-18T12:06:37.416Z,55.31
2018-06-18T12:07:37.467Z,56.95
2018-06-18T12:08:37.648Z,55.11
2018-06-18T12:09:37.871Z,56.47
2018-06-18T12:10:38.006Z,55.21
2018-06-18T12:11:38.163Z,54.17
2018-06-18T12:12:38.310Z,56.92
2018-06-18T12:13:38.571Z,56.82
2018-06-18T12:14:38.749Z,54.30
2018-06-18T12:15:38.867Z,54.21
2018-06-18T12:16:39.134Z,56.75
2018-06-18T12:17:39.189Z,55.58
2018-06-18T12:18:39.404Z,55.68
2018-06-18T12:19:39.524Z,54.03
2018-06-18T12:20:39.741Z,51.81
2018-06-18T12:21:39.889Z,51.84
2018-06-18T12:22:40.082Z,51.64
2018-06-18T12:23:40.304Z,51.64
2018-06-18T12:24:40.473Z,51.84
2018-06-18T12:25:40.644Z,52.80
2018-06-18T12:26:40.817Z,51.23
2018-06-18T12:27:40.975Z,51.62
2018-06-18T12:28:41.142Z,51.42
2018-06-18T12:29:41.315Z,53.23
2018-06-18T12:30:41.500Z,54.57
2018-06-18T12:31:41.671Z,54.37
2018-06-18T12:32:41.870Z,54.27
2018-06-18T12:33:42.016Z,56.47
2018-06-18T12:34:42.178Z,56.57
2018-06-18T12:35:42.436Z,56.83
2018-06-18T12:36:42.509Z,57.31
2018-06-18T12:37:42.723Z,54.41
2018-06-18T12:38:42.932Z,56.32
2018-06-18T12:39:43.070Z,56.54
2018-06-18T12:40:43.241Z,57.09
2018-06-18T12:41:43.396Z,57.19
2018-06-18T12:42:43.595Z,55.45
2018-06-18T12:43:43.770Z,56.51
2018-06-18T12:44:43.987Z,57.03
2018-06-18T12:45:44.224Z,56.15
2018-06-18T12:46:44.472Z,55.29
2018-06-18T12:47:44.580Z,55.29
2018-06-18T12:48:44.740Z,56.76
2018-06-18T12:49:44.872Z,54.75
2018-06-18T12:50:45.070Z,54.69
2018-06-18T12:51:45.228Z,53.91
2018-06-18T12:52:45.419Z,52.75
2018-06-18T12:53:45.600Z,52.46
2018-06-18T12:54:45.774Z,51.64
2018-06-18T12:55:45.981Z,50.29
2018-06-18T12:56:46.140Z,50.48
2018-06-18T12:57:46.261Z,51.67
2018-06-18T12:58:46.388Z,49.51
2018-06-18T12:59:46.626Z,45.77
2018-06-18T13:00:46.807Z,45.87
2018-06-18T13:01:46.984Z,45.57
2018-06-18T13:02:47.187Z,45.42
2018-06-18T13:03:47.295Z,45.00
2018-06-18T13:04:47.442Z,44.01
2018-06-18T13:05:47.693Z,44.76
2018-06-18T13:06:47.785Z,45.15
2018-06-18T13:07:47.992Z,44.48
2018-06-18T13:08:48.230Z,43.89
2018-06-18T13:09:48.347Z,44.02
2018-06-18T13:10:48.613Z,45.87
2018-06-18T13:11:48.718Z,47.49
2018-06-18T13:12:48.917Z,46.77
2018-06-18T13:13:49.055Z,47.20
2018-06-18T13:14:49.217Z,47.62
2018-06-18T13:15:49.358Z,49.85
2018-06-18T13:16:49.566Z,50.24
2018-06-18T13:17:49.738Z,49.17
2018-06-18T13:18:49.881Z,47.81
2018-06-18T13:19:50.152Z,49.07
2018-06-18T13:20:50.275Z,49.17
2018-06-18T13:21:50.474Z,49.05
2018-06-18T13:22:50.667Z,48.95
2018-06-18T13:23:50.836Z,50.57
2018-06-18T13:24:51.031Z,51.16
2018-06-18T13:25:51.186Z,51.16
2018-06-18T13:26:51.384Z,52.49
2018-06-18T13:27:51.572Z,52.78
2018-06-18T13:28:51.672Z,52.49
2018-06-18T13:29:51.853Z,52.29
2018-06-18T13:30:52.005Z,53.94
2018-06-18T13:31:52.230Z,53.67
2018-06-18T13:32:52.403Z,50.29
2018-06-18T13:33:52.536Z,50.89
2018-06-18T13:34:52.679Z,49.70
2018-06-18T13:35:52.864Z,49.80
2018-06-18T13:36:52.993Z,52.03
2018-06-18T13:37:53.246Z,52.32
2018-06-18T13:38:53.369Z,50.77
2018-06-18T13:39:53.589Z,50.45
2018-06-18T13:40:53.739Z,51.23
2018-06-18T13:41:53.933Z,52.08
2018-06-18T13:42:54.075Z,52.08
2018-06-18T13:43:54.259Z,54.69
2018-06-18T13:44:54.458Z,56.34
2018-06-18T13:45:54.595Z,56.72
2018-06-18T13:46:54.704Z,55.34
2018-06-18T13:47:54.953Z,55.05
2018-06-18T13:48:55.069Z,55.34
2018-06-18T13:49:55.261Z,53.59
2018-06-18T13:50:55.432Z,54.63
2018-06-18T13:51:55.650Z,53.69
2018-06-18T13:52:55.803Z,51.32
2018-06-18T13:53:56.018Z,52.32
2018-06-18T13:54:56.135Z,51.35
2018-06-18T13:55:56.340Z,50.70
2018-06-18T13:56:56.557Z,49.95
2018-06-18T13:57:56.659Z,50.43
2018-06-18T13:58:56.895Z,50.53
2018-06-18T13:59:57.068Z,49.44
2018-06-18T14:00:57.236Z,50.70
2018-06-18T14:01:57.413Z,51.86
2018-06-18T14:02:57.532Z,51.28
2018-06-18T14:03:57.683Z,52.25
2018-06-18T14:04:57.914Z,52.25
2018-06-18T14:05:58.070Z,52.64
2018-06-18T14:06:58.191Z,51.09
2018-06-18T14:07:58.442Z,50.99
2018-06-18T14:08:58.564Z,49.58
2018-06-18T14:09:58.710Z,48.83
2018-06-18T14:10:58.944Z,45.82
2018-06-18T14:11:59.129Z,47.13
2018-06-18T14:12:59.338Z,47.34
2018-06-18T14:13:59.464Z,46.35
2018-06-18T14:14:59.585Z,45.91
2018-06-18T14:15:59.759Z,46.03
2018-06-18T14:16:59.955Z,43.54
2018-06-18T14:18:00.174Z,43.64
2018-06-18T14:19:00.348Z,44.49
2018-06-18T14:20:00.540Z,43.87
2018-06-18T14:21:00.699Z,45.48
2018-06-18T14:22:00.844Z,46.62
2018-06-18T14:23:01.018Z,47.57
2018-06-18T14:24:01.192Z,47.64
2018-06-18T14:25:01.369Z,48.39
2018-06-18T14:26:01.537Z,49.73
2018-06-18T14:27:01.718Z,49.61
2018-06-18T14:28:01.893Z,49.90
2018-06-18T14:29:02.021Z,51.62
2018-06-18T14:30:02.237Z,51.40
2018-06-18T14:31:02.442Z,52.14
2018-06-18T14:32:02.572Z,54.08
2018-06-18T14:33:02.723Z,54.27
2018-06-18T14:34:02.947Z,54.08
2018-06-18T14:35:03.075Z,55.34
2018-06-18T14:36:03.200Z,54.17
2018-06-18T14:37:03.448Z,53.69
2018-06-18T14:38:03.613Z,53.81
2018-06-18T14:39:03.765Z,53.72
2018-06-18T14:40:03.941Z,54.23
2018-06-18T14:41:04.161Z,53.65
2018-06-18T14:42:04.383Z,51.57
2018-06-18T14:43:04.427Z,50.26
2018-06-18T14:44:04.590Z,49.24
2018-06-18T14:45:04.885Z,47.40
2018-06-18T14:46:05.132Z,47.52
2018-06-18T14:47:05.166Z,46.55
2018-06-18T14:48:05.240Z,45.45
2018-06-18T14:49:05.455Z,47.30
2018-06-18T14:50:05.661Z,46.72
2018-06-18T14:51:05.805Z,46.33
2018-06-18T14:52:05.958Z,46.42
2018-06-18T14:53:06.158Z,46.77
2018-06-18T14:54:06.402Z,48.35
2018-06-18T14:55:06.516Z,47.55
2018-06-18T14:56:06.813Z,48.03
2018-06-18T14:57:06.934Z,48.39
2018-06-18T14:58:07.138Z,47.69
2018-06-18T14:59:07.305Z,48.37
2018-06-18T15:00:07.491Z,46.08
2018-06-18T15:01:07.626Z,45.67
2018-06-18T15:02:07.790Z,46.25
2018-06-18T15:03:07.953Z,48.18
2018-06-18T15:04:08.234Z,48.54
2018-06-18T15:05:08.304Z,49.68
2018-06-18T15:06:08.500Z,47.86
2018-06-18T15:07:08.694Z,49.19
2018-06-18T15:08:08.878Z,49.85
2018-06-18T15:09:09.211Z,50.62
2018-06-18T15:10:09.270Z,48.93
2018-06-18T15:11:09.424Z,47.32
2018-06-18T15:12:09.580Z,47.69
2018-06-18T15:13:09.725Z,45.98
2018-06-18T15:14:09.898Z,45.35
2018-06-18T15:15:10.208Z,43.52
2018-06-18T15:16:10.218Z,42.65
2018-06-18T15:17:10.410Z,45.42
2018-06-18T15:18:10.661Z,45.74
2018-06-18T15:19:10.785Z,45.84
2018-06-18T15:20:10.965Z,44.48
2018-06-18T15:21:11.188Z,44.69
2018-06-18T15:22:11.266Z,43.91
2018-06-18T15:23:11.465Z,43.15
2018-06-18T15:24:11.634Z,42.45
2018-06-18T15:25:11.858Z,43.21
2018-06-18T15:26:12.040Z,43.33
2018-06-18T15:27:12.246Z,43.09
2018-06-18T15:28:12.348Z,45.50
2018-06-18T15:29:12.518Z,45.72
2018-06-18T15:30:12.756Z,43.95
2018-06-18T15:31:12.892Z,44.94
2018-06-18T15:32:13.118Z,43.71
2018-06-18T15:33:13.281Z,42.84
2018-06-18T15:34:13.418Z,42.96
2018-06-18T15:35:13.599Z,42.65
2018-06-18T15:36:13.799Z,42.66
2018-06-18T15:37:13.936Z,42.86
2018-06-18T15:38:14.233Z,43.44
2018-06-18T15:39:14.235Z,43.57
2018-06-18T15:40:14.457Z,41.93
2018-06-18T15:41:14.607Z,40.56
2018-06-18T15:42:14.804Z,40.27
2018-06-18T15:43:15.018Z,39.88
2018-06-18T15:44:15.301Z,39.41
2018-06-18T15:45:15.313Z,39.31
2018-06-18T15:46:15.524Z,39.80
2018-06-18T15:47:15.692Z,40.37
2018-06-18T15:48:15.832Z,40.86
2018-06-18T15:49:15.951Z,41.03
2018-06-18T15:50:16.223Z,42.69
2018-06-18T15:51:16.376Z,43.18
2018-06-18T15:52:16.600Z,43.66
2018-06-18T15:53:16.707Z,42.18
2018-06-18T15:54:16.882Z,41.89
2018-06-18T15:55:17.004Z,42.57